createdAt,value
2023-07-11T00:01:18.707Z,67.60
2023-07-11T00:03:46.170Z,67.60
2023-07-11T00:06:19.959Z,67.80
2023-07-11T00:08:47.397Z,67.70
2023-07-11T00:11:18.933Z,68.20
2023-07-11T00:13:46.980Z,68.50
2023-07-11T00:16:16.068Z,68.60
2023-07-11T00:18:44.013Z,68.80
2023-07-11T00:21:11.335Z,68.90
2023-07-11T00:23:38.644Z,69.20
2023-07-11T00:26:06.287Z,69.40
2023-07-11T00:28:34.032Z,69.80
2023-07-11T00:31:02.099Z,69.40
2023-07-11T00:33:30.351Z,70.20
2023-07-11T00:35:58.101Z,69.70
2023-07-11T00:38:26.709Z,69.60
2023-07-11T00:40:53.887Z,69.40
2023-07-11T00:43:22.721Z,69.60
2023-07-11T00:46:12.480Z,69.90
2023-07-11T00:48:54.085Z,69.60
2023-07-11T00:51:46.871Z,70.30
2023-07-11T00:54:19.197Z,70.30
2023-07-11T00:56:48.373Z,70.30
2023-07-11T00:59:18.135Z,70.40
2023-07-11T01:01:51.831Z,70.40
2023-07-11T01:04:20.686Z,70.30
2023-07-11T01:06:48.803Z,70.40
2023-07-11T01:09:17.149Z,70.30
2023-07-11T01:11:57.423Z,70.00
2023-07-11T01:14:26.419Z,70.10
2023-07-11T01:16:53.838Z,70.10
2023-07-11T01:19:23.212Z,70.10
2023-07-11T01:21:50.762Z,70.30
2023-07-11T01:24:17.992Z,70.30
2023-07-11T01:26:46.144Z,70.70
2023-07-11T01:29:13.366Z,70.30
2023-07-11T01:31:41.235Z,70.70
2023-07-11T01:34:09.076Z,70.80
2023-07-11T01:36:37.715Z,71.20
2023-07-11T01:39:07.858Z,71.10
2023-07-11T01:41:35.749Z,71.00
2023-07-11T01:44:04.504Z,70.50
2023-07-11T01:46:31.607Z,70.50
2023-07-11T01:48:59.839Z,70.70
2023-07-11T01:51:26.919Z,70.70
2023-07-11T01:53:53.997Z,70.80
2023-07-11T01:56:21.524Z,70.70
2023-07-11T01:58:48.629Z,70.40
2023-07-11T02:01:15.947Z,70.30
2023-07-11T02:03:43.203Z,70.50
2023-07-11T02:06:10.432Z,70.70
2023-07-11T02:08:37.706Z,71.40
2023-07-11T02:11:05.420Z,71.40
2023-07-11T02:13:32.616Z,71.40
2023-07-11T02:15:59.945Z,71.30
2023-07-11T02:18:27.102Z,71.10
2023-07-11T02:20:57.360Z,71.10
2023-07-11T02:23:25.432Z,71.30
2023-07-11T02:25:54.767Z,71.30
2023-07-11T02:28:23.363Z,71.30
2023-07-11T02:30:50.498Z,71.40
2023-07-11T02:33:17.560Z,71.30
2023-07-11T02:35:44.639Z,71.40
2023-07-11T02:38:11.805Z,71.90
2023-07-11T02:40:38.893Z,71.80
2023-07-11T02:43:05.986Z,71.70
2023-07-11T02:45:33.178Z,71.80
2023-07-11T02:48:00.355Z,71.80
2023-07-11T02:50:27.478Z,72.00
2023-07-11T02:52:54.537Z,72.10
2023-07-11T02:55:21.749Z,72.00
2023-07-11T02:57:48.864Z,72.10
2023-07-11T03:00:16.269Z,72.20
2023-07-11T03:02:43.448Z,72.50
2023-07-11T03:05:10.986Z,72.10
2023-07-11T03:07:38.065Z,72.10
2023-07-11T03:10:05.786Z,71.80
2023-07-11T03:12:33.042Z,72.00
2023-07-11T03:15:02.762Z,72.20
2023-07-11T03:17:31.403Z,72.50
2023-07-11T03:19:58.506Z,72.80
2023-07-11T03:22:25.703Z,72.70
2023-07-11T03:24:52.815Z,72.50
2023-07-11T03:27:19.943Z,72.60
2023-07-11T03:29:47.041Z,73.10
2023-07-11T03:32:14.906Z,73.10
2023-07-11T03:34:53.822Z,73.00
2023-07-11T03:37:22.002Z,72.90
2023-07-11T03:39:49.082Z,73.30
2023-07-11T03:42:16.233Z,73.20
2023-07-11T03:44:44.140Z,73.10
2023-07-11T03:47:11.529Z,72.90
2023-07-11T03:49:38.783Z,73.00
2023-07-11T03:52:06.471Z,72.80
2023-07-11T03:54:33.690Z,73.00
2023-07-11T03:57:00.834Z,73.00
2023-07-11T03:59:27.878Z,72.90
2023-07-11T04:01:55.067Z,72.80
2023-07-11T04:04:22.150Z,73.10
2023-07-11T04:06:49.362Z,73.00
2023-07-11T04:09:16.449Z,73.20
2023-07-11T04:11:43.533Z,73.30
2023-07-11T04:14:12.018Z,73.20
2023-07-11T04:16:39.342Z,73.30
2023-07-11T04:19:07.711Z,73.50
2023-07-11T04:21:36.268Z,73.40
2023-07-11T04:24:03.547Z,73.80
2023-07-11T04:26:30.702Z,73.40
2023-07-11T04:28:57.858Z,73.20
2023-07-11T04:31:27.231Z,73.10
2023-07-11T04:33:54.780Z,73.10
2023-07-11T04:36:21.921Z,72.70
2023-07-11T04:38:50.115Z,72.70
2023-07-11T04:41:18.738Z,72.70
2023-07-11T04:43:45.848Z,72.70
2023-07-11T04:46:12.959Z,72.50
2023-07-11T04:48:40.140Z,72.50
2023-07-11T04:51:09.784Z,72.40
2023-07-11T04:53:36.943Z,72.20
2023-07-11T04:56:09.921Z,71.90
2023-07-11T04:58:38.045Z,71.60
2023-07-11T05:01:15.328Z,71.60
2023-07-11T05:03:43.006Z,71.60
2023-07-11T05:06:10.554Z,71.50
2023-07-11T05:08:37.915Z,71.10
2023-07-11T05:11:09.732Z,71.50
2023-07-11T05:13:37.050Z,71.60
2023-07-11T05:16:15.969Z,70.60
2023-07-11T05:18:45.600Z,69.70
2023-07-11T05:21:16.526Z,68.20
2023-07-11T05:23:44.548Z,68.20
2023-07-11T05:26:12.244Z,69.10
2023-07-11T05:28:39.410Z,69.00
2023-07-11T05:31:09.206Z,68.50
2023-07-11T05:33:36.914Z,68.90
2023-07-11T05:36:34.303Z,68.40
2023-07-11T05:39:14.235Z,68.20
2023-07-11T05:41:47.222Z,68.40
2023-07-11T05:44:15.293Z,68.30
2023-07-11T05:46:44.632Z,68.50
2023-07-11T05:49:14.564Z,67.80
2023-07-11T05:51:41.747Z,67.20
2023-07-11T05:54:09.255Z,66.50
2023-07-11T05:56:36.383Z,66.70
2023-07-11T05:59:03.661Z,66.50
2023-07-11T06:01:32.521Z,66.40
2023-07-11T06:04:12.908Z,65.90
2023-07-11T06:06:45.660Z,66.00
2023-07-11T06:09:16.719Z,65.00
2023-07-11T06:11:46.207Z,64.60
2023-07-11T06:14:14.148Z,64.20
2023-07-11T06:16:43.202Z,63.70
2023-07-11T06:19:10.734Z,64.20
2023-07-11T06:21:37.944Z,64.00
2023-07-11T06:24:05.274Z,63.80
2023-07-11T06:26:32.397Z,63.70
2023-07-11T06:28:59.816Z,63.10
2023-07-11T06:31:27.180Z,63.30
2023-07-11T06:33:54.346Z,62.80
2023-07-11T06:36:21.531Z,60.60
2023-07-11T06:38:48.638Z,62.00
2023-07-11T06:41:15.768Z,62.40
2023-07-11T06:43:42.953Z,61.20
2023-07-11T06:46:10.667Z,62.20
2023-07-11T06:48:38.046Z,62.10
2023-07-11T06:51:06.221Z,61.90
2023-07-11T06:53:36.047Z,60.10
2023-07-11T06:56:04.372Z,61.20
2023-07-11T06:58:32.004Z,60.70
2023-07-11T07:01:16.160Z,60.50
2023-07-11T07:03:53.750Z,60.20
2023-07-11T07:06:21.024Z,59.70
2023-07-11T07:08:48.269Z,60.20
2023-07-11T07:11:16.868Z,59.20
2023-07-11T07:13:51.950Z,59.10
2023-07-11T07:16:23.113Z,59.10
2023-07-11T07:18:50.223Z,58.30
2023-07-11T07:21:17.425Z,58.10
2023-07-11T07:23:44.520Z,57.80
2023-07-11T07:26:11.906Z,58.00
2023-07-11T07:28:39.084Z,58.70
2023-07-11T07:31:07.571Z,56.70
2023-07-11T07:33:35.929Z,58.30
2023-07-11T07:36:07.272Z,58.40
2023-07-11T07:38:34.935Z,56.70
2023-07-11T07:41:06.622Z,57.50
2023-07-11T07:43:35.444Z,57.20
2023-07-11T07:46:05.072Z,57.40
2023-07-11T07:48:33.082Z,56.70
2023-07-11T07:51:07.828Z,58.20
2023-07-11T07:53:35.405Z,57.20
2023-07-11T07:56:35.866Z,56.50
2023-07-11T07:59:03.720Z,56.20
2023-07-11T08:01:32.520Z,57.90
2023-07-11T08:03:59.688Z,57.10
2023-07-11T08:06:27.775Z,56.90
2023-07-11T08:08:55.540Z,56.10
2023-07-11T08:11:22.831Z,56.50
2023-07-11T08:13:58.999Z,55.70
2023-07-11T08:16:34.128Z,56.10
2023-07-11T08:19:06.935Z,54.30
2023-07-11T08:21:36.800Z,55.50
2023-07-11T08:24:07.795Z,54.80
2023-07-11T08:26:35.268Z,54.70
2023-07-11T08:29:09.637Z,55.60
2023-07-11T08:31:40.678Z,56.50
2023-07-11T08:34:07.768Z,54.90
2023-07-11T08:36:34.951Z,54.40
2023-07-11T08:39:02.178Z,54.70
2023-07-11T08:41:49.330Z,55.00
2023-07-11T08:44:47.083Z,55.20
2023-07-11T08:47:33.093Z,55.10
2023-07-11T08:50:28.640Z,54.80
2023-07-11T08:53:10.787Z,55.20
2023-07-11T08:55:43.397Z,54.50
2023-07-11T08:58:30.556Z,55.50
2023-07-11T09:00:59.403Z,53.30
2023-07-11T09:03:48.495Z,54.20
2023-07-11T09:06:27.485Z,54.80
2023-07-11T09:08:55.636Z,55.30
2023-07-11T09:11:42.986Z,54.00
2023-07-11T09:14:30.033Z,53.10
2023-07-11T09:17:57.526Z,53.20
2023-07-11T09:21:00.188Z,53.90
2023-07-11T09:23:40.167Z,54.70
2023-07-11T09:26:15.150Z,54.10
2023-07-11T09:28:43.632Z,53.20
2023-07-11T09:31:19.147Z,53.70
2023-07-11T09:33:56.046Z,52.50
2023-07-11T09:36:31.651Z,53.10
2023-07-11T09:39:42.610Z,53.50
2023-07-11T09:42:42.037Z,52.60
2023-07-11T09:45:17.049Z,51.50
2023-07-11T09:48:00.181Z,50.90
2023-07-11T09:51:13.105Z,51.90
2023-07-11T09:53:46.272Z,51.70
2023-07-11T09:56:18.036Z,51.50
2023-07-11T09:58:53.442Z,51.60
2023-07-11T10:01:35.226Z,52.00
2023-07-11T10:04:07.330Z,50.90
2023-07-11T10:06:48.166Z,51.10
2023-07-11T10:09:31.931Z,50.80
2023-07-11T10:12:16.016Z,50.20
2023-07-11T10:14:48.330Z,50.40
2023-07-11T10:17:35.950Z,49.80
2023-07-11T10:20:18.075Z,51.10
2023-07-11T10:22:53.987Z,49.50
2023-07-11T10:25:28.647Z,50.80
2023-07-11T10:28:07.416Z,51.20
2023-07-11T10:30:35.922Z,49.70
2023-07-11T10:35:56.560Z,51.40
2023-07-11T10:38:48.707Z,50.60
2023-07-11T10:41:51.184Z,49.40
2023-07-11T10:44:41.655Z,49.60
2023-07-11T10:47:10.451Z,50.20
2023-07-11T10:49:45.499Z,49.90
2023-07-11T10:52:27.791Z,50.10
2023-07-11T10:55:21.311Z,49.50
2023-07-11T10:57:53.433Z,48.00
2023-07-11T11:00:37.790Z,48.10
2023-07-11T11:03:45.175Z,48.10
2023-07-11T11:07:00.431Z,47.30
2023-07-11T11:09:59.571Z,49.00
2023-07-11T11:12:59.737Z,48.60
2023-07-11T11:15:54.512Z,47.60
2023-07-11T11:18:44.237Z,48.90
2023-07-11T11:24:51.992Z,49.20
2023-07-11T11:27:43.702Z,48.10
2023-07-11T11:30:45.063Z,46.80
2023-07-11T11:33:45.979Z,47.00
2023-07-11T11:36:43.816Z,48.50
2023-07-11T11:39:25.909Z,46.80
2023-07-11T11:41:58.858Z,46.50
2023-07-11T11:48:21.515Z,49.20
2023-07-11T11:52:44.609Z,47.70
2023-07-11T11:55:41.527Z,47.40
2023-07-11T11:58:17.524Z,46.40
2023-07-11T12:00:51.478Z,46.00
2023-07-11T12:03:44.541Z,46.40
2023-07-11T12:06:36.495Z,45.20
2023-07-11T12:09:18.868Z,46.20
2023-07-11T12:12:12.895Z,46.40
2023-07-11T12:14:45.679Z,45.70
2023-07-11T12:17:34.032Z,46.40
2023-07-11T12:20:01.158Z,47.10
2023-07-11T12:22:51.264Z,46.50
2023-07-11T12:25:36.501Z,45.30
2023-07-11T12:28:03.712Z,47.90
2023-07-11T12:30:41.682Z,45.50
2023-07-11T12:33:35.296Z,46.90
2023-07-11T12:36:30.068Z,46.10
2023-07-11T12:39:33.376Z,45.20
2023-07-11T12:42:37.454Z,44.90
2023-07-11T12:45:18.101Z,45.80
2023-07-11T12:47:50.701Z,44.70
2023-07-11T12:50:29.658Z,45.60
2023-07-11T12:53:02.504Z,44.40
2023-07-11T12:55:31.757Z,44.60
2023-07-11T12:57:59.502Z,46.40
2023-07-11T13:00:31.837Z,43.60
2023-07-11T13:03:27.227Z,43.50
2023-07-11T13:06:19.685Z,44.60
2023-07-11T13:08:48.846Z,43.10
2023-07-11T13:11:24.059Z,45.70
2023-07-11T13:13:53.024Z,44.20
2023-07-11T13:16:39.486Z,42.80
2023-07-11T13:19:13.699Z,45.30
2023-07-11T13:21:45.137Z,44.50
2023-07-11T13:24:22.374Z,43.40
2023-07-11T13:26:51.548Z,44.60
2023-07-11T13:29:22.286Z,43.70
2023-07-11T13:32:03.932Z,45.80
2023-07-11T13:34:33.022Z,43.20
2023-07-11T13:37:00.548Z,43.90
2023-07-11T13:39:35.637Z,43.10
2023-07-11T13:42:11.828Z,42.80
2023-07-11T13:44:51.998Z,42.50
2023-07-11T13:47:41.598Z,44.20
2023-07-11T13:50:19.031Z,45.20
2023-07-11T13:52:56.542Z,42.40
2023-07-11T13:55:43.563Z,42.90
2023-07-11T13:58:11.369Z,43.90
2023-07-11T14:00:46.997Z,42.50
2023-07-11T14:03:24.714Z,43.30
2023-07-11T14:05:59.200Z,43.70
2023-07-11T14:08:27.259Z,44.20
2023-07-11T14:10:54.731Z,44.20
2023-07-11T14:13:26.295Z,45.20
2023-07-11T14:15:55.775Z,44.30
2023-07-11T14:18:23.076Z,44.00
2023-07-11T14:20:50.251Z,44.30
2023-07-11T14:23:24.994Z,45.30
2023-07-11T14:25:52.662Z,43.60
2023-07-11T14:28:20.398Z,43.40
2023-07-11T14:30:48.252Z,43.60
2023-07-11T14:33:20.306Z,44.40
2023-07-11T14:35:49.001Z,41.30
2023-07-11T14:38:21.433Z,42.20
2023-07-11T14:40:48.916Z,41.70
2023-07-11T14:43:20.348Z,40.90
2023-07-11T14:45:47.462Z,41.30
2023-07-11T14:48:24.318Z,41.60
2023-07-11T14:51:02.085Z,42.20
2023-07-11T14:53:40.201Z,43.00
2023-07-11T14:58:49.088Z,43.90
2023-07-11T15:01:16.693Z,42.10
2023-07-11T15:16:52.759Z,40.30
2023-07-11T15:19:27.423Z,40.20
2023-07-11T15:22:06.283Z,39.00
2023-07-11T15:24:40.599Z,39.10
2023-07-11T15:27:14.666Z,39.10
2023-07-11T15:29:42.653Z,40.90
2023-07-11T15:32:23.478Z,42.20
2023-07-11T15:34:51.390Z,42.70
2023-07-11T15:37:18.492Z,41.80
2023-07-11T15:39:45.601Z,40.80
2023-07-11T15:42:33.002Z,39.60
2023-07-11T15:45:00.643Z,40.40
2023-07-11T15:47:27.847Z,39.90
2023-07-11T15:49:54.957Z,38.50
2023-07-11T15:52:22.528Z,38.70
2023-07-11T15:54:49.677Z,39.10
2023-07-11T15:57:24.755Z,38.70
2023-07-11T15:59:52.570Z,39.10
2023-07-11T16:02:24.252Z,41.60
2023-07-11T16:04:51.587Z,41.00
2023-07-11T16:07:20.878Z,41.10
2023-07-11T16:09:48.625Z,39.80
2023-07-11T16:12:17.618Z,38.80
2023-07-11T16:14:45.640Z,38.30
2023-07-11T16:17:20.798Z,39.20
2023-07-11T16:19:51.510Z,39.20
2023-07-11T16:22:22.808Z,40.90
2023-07-11T16:24:51.108Z,40.60
2023-07-11T16:27:18.700Z,41.00
2023-07-11T16:29:48.155Z,41.20
2023-07-11T16:32:16.206Z,41.90
2023-07-11T16:34:45.086Z,42.30
2023-07-11T16:37:30.508Z,41.40
2023-07-11T16:39:57.599Z,42.80
2023-07-11T16:42:24.878Z,43.90
2023-07-11T16:44:53.229Z,42.50
2023-07-11T16:47:20.503Z,44.70
2023-07-11T16:49:50.695Z,45.20
2023-07-11T16:52:17.933Z,43.80
2023-07-11T16:54:48.660Z,45.00
2023-07-11T16:57:19.393Z,45.40
2023-07-11T16:59:46.590Z,45.00
2023-07-11T17:02:24.664Z,42.50
2023-07-11T17:04:53.022Z,43.20
2023-07-11T17:07:25.003Z,44.40
2023-07-11T17:09:52.138Z,44.20
2023-07-11T17:12:20.525Z,43.20
2023-07-11T17:14:47.737Z,43.20
2023-07-11T17:17:26.298Z,43.10
2023-07-11T17:19:56.566Z,43.10
2023-07-11T17:22:24.711Z,44.10
2023-07-11T17:24:51.867Z,44.40
2023-07-11T17:27:31.423Z,44.30
2023-07-11T17:29:58.666Z,44.30
2023-07-11T17:32:30.496Z,42.30
2023-07-11T17:34:57.677Z,41.60
2023-07-11T17:37:32.035Z,43.10
2023-07-11T17:39:59.920Z,43.20
2023-07-11T17:42:28.922Z,43.10
2023-07-11T17:44:58.954Z,43.60
2023-07-11T17:50:00.271Z,43.50
2023-07-11T17:52:30.894Z,44.20
2023-07-11T17:54:58.321Z,45.00
2023-07-11T17:57:30.679Z,45.70
2023-07-11T17:59:57.892Z,46.30
2023-07-11T18:02:38.244Z,46.80
2023-07-11T18:05:22.411Z,47.30
2023-07-11T18:07:50.884Z,47.80
2023-07-11T18:10:30.150Z,48.80
2023-07-11T18:13:09.454Z,49.30
2023-07-11T18:15:44.741Z,49.90
2023-07-11T18:18:27.229Z,51.00
2023-07-11T18:20:57.219Z,51.50
2023-07-11T18:23:25.227Z,51.70
2023-07-11T18:25:54.103Z,52.30
2023-07-11T18:28:23.447Z,52.80
2023-07-11T18:30:51.230Z,52.90
2023-07-11T18:33:19.436Z,52.80
2023-07-11T18:35:47.988Z,53.10
2023-07-11T18:38:26.441Z,53.50
2023-07-11T18:40:53.729Z,53.60
2023-07-11T18:43:21.512Z,53.70
2023-07-11T18:45:50.303Z,54.00
2023-07-11T18:48:17.736Z,54.00
2023-07-11T18:50:45.210Z,54.60
2023-07-11T18:53:12.613Z,54.30
2023-07-11T18:55:45.449Z,55.20
2023-07-11T18:58:13.884Z,56.30
2023-07-11T19:00:48.324Z,57.10
2023-07-11T19:03:18.416Z,57.90
2023-07-11T19:05:46.668Z,58.90
2023-07-11T19:08:20.003Z,59.60
2023-07-11T19:10:48.043Z,60.20
2023-07-11T19:13:15.561Z,60.50
2023-07-11T19:15:44.780Z,60.30
2023-07-11T19:18:22.113Z,60.60
2023-07-11T19:20:50.535Z,60.70
2023-07-11T19:23:27.137Z,60.90
2023-07-11T19:25:55.280Z,61.20
2023-07-11T19:28:31.495Z,61.70
2023-07-11T19:31:04.427Z,62.10
2023-07-11T19:33:31.687Z,62.50
2023-07-11T19:36:00.320Z,63.00
2023-07-11T19:38:30.420Z,62.80
2023-07-11T19:40:57.837Z,62.30
2023-07-11T19:43:25.359Z,62.40
2023-07-11T19:45:56.919Z,62.50
2023-07-11T19:48:27.441Z,63.00
2023-07-11T19:50:58.314Z,63.10
2023-07-11T19:53:26.053Z,62.90
2023-07-11T19:55:57.322Z,62.90
2023-07-11T19:58:28.764Z,62.50
2023-07-11T20:01:02.104Z,62.50
2023-07-11T20:03:32.633Z,62.30
2023-07-11T20:06:02.076Z,62.30
2023-07-11T20:08:34.079Z,62.50
2023-07-11T20:11:05.411Z,62.50
2023-07-11T20:13:32.854Z,62.40
2023-07-11T20:16:20.371Z,62.00
2023-07-11T20:18:47.895Z,61.40
2023-07-11T20:21:20.610Z,61.10
2023-07-11T20:23:51.351Z,60.90
2023-07-11T20:26:28.088Z,61.10
2023-07-11T20:28:58.053Z,60.40
2023-07-11T20:31:26.076Z,59.80
2023-07-11T20:33:53.456Z,59.80
2023-07-11T20:36:26.978Z,61.10
2023-07-11T20:38:58.200Z,62.10
2023-07-11T20:41:26.663Z,64.50
2023-07-11T20:43:53.991Z,65.80
2023-07-11T20:46:23.744Z,64.90
2023-07-11T20:48:51.767Z,65.40
2023-07-11T20:51:21.354Z,65.50
2023-07-11T20:53:48.886Z,68.50
2023-07-11T20:56:22.720Z,68.80
2023-07-11T20:58:52.668Z,68.90
2023-07-11T21:01:22.397Z,69.40
2023-07-11T21:03:50.024Z,70.20
2023-07-11T21:06:34.561Z,70.10
2023-07-11T21:09:04.832Z,71.10
2023-07-11T21:11:32.040Z,71.60
2023-07-11T21:13:59.244Z,71.40
2023-07-11T21:16:32.885Z,72.00
2023-07-11T21:19:02.869Z,71.70
2023-07-11T21:21:30.605Z,72.40
2023-07-11T21:23:57.841Z,72.20
2023-07-11T21:26:28.242Z,72.10
2023-07-11T21:28:56.109Z,71.60
2023-07-11T21:31:24.937Z,72.30
2023-07-11T21:33:52.699Z,72.30
2023-07-11T21:36:22.930Z,72.40
2023-07-11T21:38:51.488Z,72.70
2023-07-11T21:41:21.518Z,73.40
2023-07-11T21:43:48.869Z,73.70
2023-07-11T21:46:36.501Z,73.80
2023-07-11T21:49:03.676Z,73.50
2023-07-11T21:51:34.021Z,73.10
2023-07-11T21:54:01.218Z,73.30
2023-07-11T21:56:30.799Z,73.80
2023-07-11T21:59:01.921Z,73.60
2023-07-11T22:01:30.580Z,73.80
2023-07-11T22:03:57.866Z,74.20
2023-07-11T22:06:31.662Z,74.90
2023-07-11T22:08:59.356Z,75.00
2023-07-11T22:11:26.922Z,75.10
2023-07-11T22:13:54.134Z,75.30
2023-07-11T22:16:25.280Z,75.90
2023-07-11T22:18:53.608Z,75.90
2023-07-11T22:21:23.947Z,76.00
2023-07-11T22:23:51.077Z,75.70
2023-07-11T22:26:27.919Z,75.80
2023-07-11T22:28:58.482Z,75.10
2023-07-11T22:31:26.814Z,75.10
2023-07-11T22:33:54.074Z,75.20
2023-07-11T22:36:21.170Z,75.70
2023-07-11T22:38:48.314Z,75.90
2023-07-11T22:41:15.511Z,75.90
2023-07-11T22:43:42.658Z,75.90
2023-07-11T22:46:21.842Z,75.60
2023-07-11T22:48:50.262Z,75.40
2023-07-11T22:51:19.256Z,75.20
2023-07-11T22:53:47.820Z,75.20
2023-07-11T22:56:23.304Z,75.10
2023-07-11T22:58:51.790Z,74.90
2023-07-11T23:01:21.287Z,75.40
2023-07-11T23:03:48.582Z,75.80
2023-07-11T23:06:21.249Z,75.80
2023-07-11T23:08:49.553Z,75.80
2023-07-11T23:11:17.750Z,76.00
2023-07-11T23:13:49.027Z,75.70
2023-07-11T23:16:30.082Z,75.80
2023-07-11T23:19:03.644Z,76.00
2023-07-11T23:21:31.679Z,75.50
2023-07-11T23:23:59.251Z,75.10
2023-07-11T23:26:27.101Z,75.00
2023-07-11T23:28:56.316Z,75.20
2023-07-11T23:31:24.942Z,75.50
2023-07-11T23:33:52.343Z,75.40
2023-07-11T23:36:22.466Z,75.10
2023-07-11T23:38:53.195Z,75.00
2023-07-11T23:41:21.152Z,75.20
2023-07-11T23:43:48.702Z,74.60
2023-07-11T23:46:30.635Z,73.40
2023-07-11T23:48:59.299Z,74.00
2023-07-11T23:51:29.325Z,74.30
2023-07-11T23:53:57.484Z,74.20
2023-07-11T23:56:31.616Z,74.20
2023-07-11T23:58:59.863Z,74.10
